createdAt,value
2023-02-12T00:01:08.725Z,31.40
2023-02-12T00:03:35.913Z,33.97
2023-02-12T00:06:02.415Z,31.57
2023-02-12T00:08:28.819Z,30.50
2023-02-12T00:10:55.214Z,30.77
2023-02-12T00:13:21.621Z,29.77
2023-02-12T00:15:47.977Z,29.23
2023-02-12T00:18:14.350Z,28.97
2023-02-12T00:20:40.768Z,28.80
2023-02-12T00:23:07.543Z,27.80
2023-02-12T00:25:34.499Z,29.23
2023-02-12T00:28:00.880Z,29.90
2023-02-12T00:30:27.274Z,28.13
2023-02-12T00:32:54.987Z,28.70
2023-02-12T00:35:21.325Z,28.70
2023-02-12T00:37:49.727Z,29.17
2023-02-12T00:40:16.198Z,29.87
2023-02-12T00:42:42.773Z,30.10
2023-02-12T00:45:11.292Z,31.07
2023-02-12T00:47:37.622Z,30.57
2023-02-12T00:50:04.103Z,27.90
2023-02-12T00:52:30.478Z,28.83
2023-02-12T00:54:56.856Z,29.10
2023-02-12T00:57:23.186Z,26.53
2023-02-12T00:59:49.545Z,27.90
2023-02-12T01:02:18.015Z,31.30
2023-02-12T01:04:44.724Z,30.60
2023-02-12T01:07:11.280Z,30.17
2023-02-12T01:09:37.718Z,29.97
2023-02-12T01:12:04.450Z,28.30
2023-02-12T01:14:30.855Z,27.00
2023-02-12T01:16:58.201Z,29.17
2023-02-12T01:19:24.760Z,29.20
2023-02-12T01:21:51.074Z,32.23
2023-02-12T01:24:17.443Z,29.40
2023-02-12T01:26:43.807Z,30.37
2023-02-12T01:29:10.268Z,32.27
2023-02-12T01:31:39.341Z,31.70
2023-02-12T01:34:07.430Z,31.63
2023-02-12T01:36:34.703Z,30.03
2023-02-12T01:39:02.855Z,29.90
2023-02-12T01:41:36.398Z,30.93
2023-02-12T01:44:10.633Z,29.77
2023-02-12T01:46:37.146Z,30.60
2023-02-12T01:49:07.108Z,27.40
2023-02-12T01:51:34.826Z,28.10
2023-02-12T01:54:05.200Z,29.60
2023-02-12T01:56:32.672Z,30.23
2023-02-12T01:58:59.160Z,28.70
2023-02-12T02:01:28.690Z,30.53
2023-02-12T02:03:59.823Z,29.53
2023-02-12T02:06:31.945Z,29.97
2023-02-12T02:09:01.076Z,29.87
2023-02-12T02:11:45.718Z,29.87
2023-02-12T02:14:31.094Z,29.50
2023-02-12T02:17:17.484Z,29.83
2023-02-12T02:20:02.450Z,31.13
2023-02-12T02:22:53.530Z,31.03
2023-02-12T02:25:45.011Z,29.83
2023-02-12T02:28:39.184Z,28.87
2023-02-12T02:31:11.685Z,32.13
2023-02-12T02:34:05.764Z,30.23
2023-02-12T02:36:59.253Z,30.03
2023-02-12T02:39:41.750Z,32.37
2023-02-12T02:42:16.195Z,32.30
2023-02-12T02:45:05.710Z,31.27
2023-02-12T02:47:37.949Z,28.70
2023-02-12T02:50:09.316Z,30.93
2023-02-12T02:52:41.938Z,26.80
2023-02-12T02:55:12.796Z,28.67
2023-02-12T02:57:48.860Z,28.37
2023-02-12T03:00:27.286Z,27.07
2023-02-12T03:03:01.819Z,27.63
2023-02-12T03:05:35.163Z,28.23
2023-02-12T03:08:34.159Z,29.20
2023-02-12T03:11:11.896Z,29.83
2023-02-12T03:13:51.199Z,29.97
2023-02-12T03:16:25.823Z,30.40
2023-02-12T03:18:58.711Z,30.30
2023-02-12T03:21:33.074Z,29.93
2023-02-12T03:24:11.889Z,29.77
2023-02-12T03:26:46.133Z,29.10
2023-02-12T03:29:13.097Z,30.87
2023-02-12T03:31:51.331Z,29.07
2023-02-12T03:34:45.486Z,30.47
2023-02-12T03:37:37.082Z,30.17
2023-02-12T03:40:20.471Z,29.37
2023-02-12T03:43:12.686Z,28.70
2023-02-12T03:45:49.004Z,28.63
2023-02-12T03:48:33.621Z,29.73
2023-02-12T03:51:10.909Z,28.90
2023-02-12T03:53:37.386Z,27.50
2023-02-12T03:56:12.396Z,29.30
2023-02-12T03:58:41.759Z,27.30
2023-02-12T04:01:08.800Z,28.37
2023-02-12T04:03:35.311Z,31.53
2023-02-12T04:06:01.652Z,29.00
2023-02-12T04:08:28.478Z,28.93
2023-02-12T04:11:17.039Z,30.87
2023-02-12T04:13:57.758Z,30.33
2023-02-12T04:16:37.818Z,30.87
2023-02-12T04:19:04.998Z,30.47
2023-02-12T04:21:52.048Z,30.30
2023-02-12T04:24:36.528Z,31.57
2023-02-12T04:27:18.867Z,32.17
2023-02-12T04:29:54.594Z,30.37
2023-02-12T04:32:31.465Z,31.07
2023-02-12T04:35:05.966Z,31.03
2023-02-12T04:37:45.881Z,31.10
2023-02-12T04:40:14.848Z,31.53
2023-02-12T04:42:43.628Z,34.20
2023-02-12T04:45:16.485Z,31.70
2023-02-12T04:47:42.935Z,33.73
2023-02-12T04:50:09.745Z,33.13
2023-02-12T04:52:36.083Z,33.27
2023-02-12T04:55:02.543Z,32.93
2023-02-12T04:57:28.999Z,32.80
2023-02-12T04:59:55.430Z,32.60
2023-02-12T05:02:22.037Z,31.90
2023-02-12T05:04:51.300Z,32.10
2023-02-12T05:07:17.817Z,31.13
2023-02-12T05:09:44.155Z,31.43
2023-02-12T05:12:10.570Z,31.97
2023-02-12T05:14:37.044Z,33.33
2023-02-12T05:17:03.491Z,33.67
2023-02-12T05:19:29.907Z,32.23
2023-02-12T05:21:56.283Z,32.17
2023-02-12T05:24:22.615Z,34.33
2023-02-12T05:26:50.994Z,32.37
2023-02-12T05:29:18.054Z,33.23
2023-02-12T05:31:44.884Z,31.67
2023-02-12T05:34:12.632Z,33.57
2023-02-12T05:36:39.877Z,33.63
2023-02-12T05:39:07.239Z,33.50
2023-02-12T05:41:36.444Z,33.47
2023-02-12T05:44:04.129Z,34.10
2023-02-12T05:46:31.293Z,33.33
2023-02-12T05:48:57.826Z,33.07
2023-02-12T05:51:26.080Z,34.87
2023-02-12T05:53:58.692Z,34.50
2023-02-12T05:56:27.898Z,35.07
2023-02-12T05:59:06.999Z,34.50
2023-02-12T06:01:39.318Z,34.73
2023-02-12T06:04:07.953Z,34.50
2023-02-12T06:06:34.742Z,33.67
2023-02-12T06:09:01.340Z,35.23
2023-02-12T06:11:28.020Z,35.30
2023-02-12T06:13:54.387Z,35.97
2023-02-12T06:16:23.790Z,35.67
2023-02-12T06:18:51.089Z,37.40
2023-02-12T06:21:20.059Z,34.63
2023-02-12T06:23:46.943Z,33.60
2023-02-12T06:26:13.374Z,34.67
2023-02-12T06:28:39.840Z,32.97
2023-02-12T06:31:25.786Z,33.10
2023-02-12T06:33:52.961Z,29.37
2023-02-12T06:36:19.680Z,32.50
2023-02-12T06:38:46.481Z,31.20
2023-02-12T06:41:12.901Z,32.23
2023-02-12T06:43:39.455Z,31.00
2023-02-12T06:46:07.042Z,31.27
2023-02-12T06:48:33.938Z,30.97
2023-02-12T06:51:11.690Z,32.07
2023-02-12T06:53:38.101Z,33.07
2023-02-12T06:56:06.482Z,34.10
2023-02-12T06:58:32.930Z,32.43
2023-02-12T07:01:12.190Z,31.43
2023-02-12T07:03:40.531Z,32.67
2023-02-12T07:06:07.085Z,32.07
2023-02-12T07:08:33.403Z,33.87
2023-02-12T07:10:59.745Z,33.57
2023-02-12T07:13:26.071Z,32.67
2023-02-12T07:15:52.451Z,35.60
2023-02-12T07:18:18.832Z,32.80
2023-02-12T07:20:45.242Z,33.30
2023-02-12T07:23:12.407Z,31.00
2023-02-12T07:25:38.870Z,32.43
2023-02-12T07:28:05.305Z,31.70
2023-02-12T07:30:31.790Z,32.63
2023-02-12T07:32:58.140Z,32.33
2023-02-12T07:35:24.450Z,34.77
2023-02-12T07:37:50.773Z,34.33
2023-02-12T07:40:17.297Z,34.97
2023-02-12T07:42:43.600Z,33.07
2023-02-12T07:45:10.620Z,34.80
2023-02-12T07:47:38.413Z,33.77
2023-02-12T07:50:07.122Z,33.20
2023-02-12T07:52:33.449Z,34.70
2023-02-12T07:54:59.788Z,37.23
2023-02-12T07:57:26.128Z,39.00
2023-02-12T07:59:52.738Z,37.23
2023-02-12T08:02:19.167Z,35.70
2023-02-12T08:04:45.552Z,38.10
2023-02-12T08:07:11.976Z,40.03
2023-02-12T08:09:38.347Z,38.57
2023-02-12T08:12:04.931Z,37.90
2023-02-12T08:14:31.419Z,37.43
2023-02-12T08:16:57.818Z,37.33
2023-02-12T08:19:26.642Z,35.67
2023-02-12T08:21:54.726Z,38.73
2023-02-12T08:24:23.787Z,37.63
2023-02-12T08:26:50.623Z,36.57
2023-02-12T08:29:27.163Z,35.13
2023-02-12T08:31:59.687Z,37.63
2023-02-12T08:34:34.795Z,37.60
2023-02-12T08:37:01.873Z,34.70
2023-02-12T08:39:29.742Z,34.60
2023-02-12T08:41:57.911Z,34.30
2023-02-12T08:44:24.312Z,33.80
2023-02-12T08:46:52.403Z,34.60
2023-02-12T08:49:22.188Z,34.77
2023-02-12T08:51:51.617Z,32.63
2023-02-12T08:54:20.603Z,33.20
2023-02-12T08:56:47.163Z,34.17
2023-02-12T08:59:14.841Z,33.53
2023-02-12T09:01:42.218Z,32.87
2023-02-12T09:04:14.999Z,32.83
2023-02-12T09:06:41.432Z,32.47
2023-02-12T09:09:07.894Z,33.17
2023-02-12T09:11:34.428Z,33.93
2023-02-12T09:14:03.538Z,34.97
2023-02-12T09:16:32.331Z,33.43
2023-02-12T09:18:58.841Z,32.10
2023-02-12T09:21:25.329Z,30.57
2023-02-12T09:23:51.918Z,30.73
2023-02-12T09:26:21.296Z,31.83
2023-02-12T09:28:49.739Z,31.60
2023-02-12T09:31:20.712Z,30.40
2023-02-12T09:33:50.521Z,29.80
2023-02-12T09:36:18.146Z,29.00
2023-02-12T09:38:44.601Z,29.20
2023-02-12T09:41:34.699Z,30.37
2023-02-12T09:44:27.577Z,28.33
2023-02-12T09:47:06.749Z,28.13
2023-02-12T09:49:49.893Z,27.93
2023-02-12T09:52:20.383Z,25.93
2023-02-12T09:54:49.589Z,26.53
2023-02-12T09:57:37.586Z,25.67
2023-02-12T10:00:15.331Z,25.80
2023-02-12T10:02:42.075Z,27.33
2023-02-12T10:05:42.740Z,25.83
2023-02-12T10:08:31.784Z,21.37
2023-02-12T10:11:35.106Z,23.27
2023-02-12T10:14:20.135Z,22.77
2023-02-12T10:17:15.644Z,23.07
2023-02-12T10:20:03.975Z,24.67
2023-02-12T10:22:57.144Z,21.53
2023-02-12T10:25:34.157Z,19.47
2023-02-12T10:28:08.881Z,18.17
2023-02-12T10:30:42.812Z,20.27
2023-02-12T10:33:29.387Z,21.43
2023-02-12T10:36:03.095Z,19.00
2023-02-12T10:38:36.315Z,20.20
2023-02-12T10:41:02.740Z,21.30
2023-02-12T10:43:29.783Z,20.97
2023-02-12T10:45:57.237Z,20.80
2023-02-12T10:48:38.687Z,18.80
2023-02-12T10:51:07.954Z,21.03
2023-02-12T10:53:37.783Z,20.10
2023-02-12T10:56:13.236Z,20.00
2023-02-12T10:58:42.516Z,21.13
2023-02-12T11:01:16.844Z,20.17
2023-02-12T11:03:43.203Z,20.70
2023-02-12T11:06:16.319Z,22.57
2023-02-12T11:08:43.794Z,24.20
2023-02-12T11:11:22.975Z,22.93
2023-02-12T11:14:02.538Z,22.13
2023-02-12T11:16:34.033Z,22.87
2023-02-12T11:19:22.227Z,22.50
2023-02-12T11:21:49.796Z,20.87
2023-02-12T11:24:34.377Z,22.53
2023-02-12T11:27:15.595Z,20.93
2023-02-12T11:29:44.356Z,21.17
2023-02-12T11:32:19.543Z,21.93
2023-02-12T11:35:06.850Z,21.37
2023-02-12T11:37:36.414Z,22.87
2023-02-12T11:40:03.514Z,22.30
2023-02-12T11:42:34.757Z,20.87
2023-02-12T11:45:02.187Z,20.70
2023-02-12T11:47:31.916Z,20.70
2023-02-12T11:50:15.915Z,21.27
2023-02-12T11:52:42.769Z,22.03
2023-02-12T11:55:27.514Z,21.17
2023-02-12T11:58:13.430Z,20.63
2023-02-12T12:00:48.951Z,21.60
2023-02-12T12:03:21.604Z,21.23
2023-02-12T12:05:54.579Z,21.20
2023-02-12T12:08:29.388Z,21.23
2023-02-12T12:11:09.360Z,19.60
2023-02-12T12:13:44.423Z,21.10
2023-02-12T12:16:34.415Z,21.57
2023-02-12T12:19:52.295Z,21.47
2023-02-12T12:22:41.186Z,21.67
2023-02-12T12:25:20.778Z,22.17
2023-02-12T12:28:07.984Z,20.00
2023-02-12T12:31:02.464Z,20.23
2023-02-12T12:33:47.747Z,21.80
2023-02-12T12:36:14.081Z,21.87
2023-02-12T12:38:55.165Z,22.40
2023-02-12T12:41:47.860Z,21.07
2023-02-12T12:44:38.788Z,20.37
2023-02-12T12:47:17.643Z,21.57
2023-02-12T12:50:14.993Z,22.67
2023-02-12T12:52:57.494Z,21.60
2023-02-12T12:56:01.410Z,22.23
2023-02-12T12:58:44.681Z,23.40
2023-02-12T13:01:35.052Z,21.67
2023-02-12T13:04:32.291Z,21.20
2023-02-12T13:07:13.226Z,20.67
2023-02-12T13:09:48.436Z,21.13
2023-02-12T13:12:23.915Z,22.47
2023-02-12T13:15:01.297Z,22.07
2023-02-12T13:17:45.871Z,21.63
2023-02-12T13:20:45.117Z,21.50
2023-02-12T13:23:23.545Z,21.27
2023-02-12T13:26:07.543Z,20.20
2023-02-12T13:28:38.316Z,22.30
2023-02-12T13:31:30.038Z,21.60
2023-02-12T13:33:59.757Z,22.87
2023-02-12T13:36:26.143Z,22.30
2023-02-12T13:39:01.526Z,23.13
2023-02-12T13:41:28.579Z,20.00
2023-02-12T13:44:01.635Z,21.27
2023-02-12T13:46:40.013Z,21.57
2023-02-12T13:49:24.653Z,20.97
2023-02-12T13:52:13.746Z,22.63
2023-02-12T13:54:55.617Z,19.60
2023-02-12T13:57:22.019Z,22.70
2023-02-12T13:59:54.056Z,21.10
2023-02-12T14:02:37.048Z,20.53
2023-02-12T14:05:18.662Z,20.93
2023-02-12T14:07:55.319Z,21.57
2023-02-12T14:10:34.838Z,21.90
2023-02-12T14:13:15.795Z,21.07
2023-02-12T14:15:45.316Z,20.93
2023-02-12T14:18:28.880Z,21.50
2023-02-12T14:21:13.398Z,19.70
2023-02-12T14:23:45.843Z,21.83
2023-02-12T14:26:17.923Z,20.23
2023-02-12T14:28:58.588Z,20.27
2023-02-12T14:31:32.852Z,19.50
2023-02-12T14:34:05.410Z,20.50
2023-02-12T14:36:41.335Z,20.87
2023-02-12T14:39:19.727Z,21.27
2023-02-12T14:41:47.442Z,20.23
2023-02-12T14:44:16.849Z,21.00
2023-02-12T14:46:55.058Z,20.00
2023-02-12T14:49:42.574Z,21.37
2023-02-12T14:52:17.767Z,20.17
2023-02-12T14:54:57.436Z,20.70
2023-02-12T14:57:40.458Z,22.27
2023-02-12T15:00:34.391Z,22.60
2023-02-12T15:03:12.782Z,22.20
2023-02-12T15:05:48.146Z,21.53
2023-02-12T15:08:34.508Z,21.83
2023-02-12T15:11:19.379Z,22.83
2023-02-12T15:13:54.745Z,22.77
2023-02-12T15:16:24.060Z,22.73
2023-02-12T15:18:50.383Z,22.10
2023-02-12T15:21:22.822Z,22.63
2023-02-12T15:24:06.348Z,22.77
2023-02-12T15:26:45.053Z,22.90
2023-02-12T15:29:20.850Z,23.70
2023-02-12T15:31:52.784Z,22.43
2023-02-12T15:34:22.191Z,21.20
2023-02-12T15:36:48.854Z,21.53
2023-02-12T15:39:20.626Z,21.63
2023-02-12T15:41:47.938Z,21.90
2023-02-12T15:44:24.584Z,22.30
2023-02-12T15:47:11.610Z,21.77
2023-02-12T15:49:39.614Z,21.70
2023-02-12T15:52:17.432Z,22.30
2023-02-12T15:54:45.847Z,23.23
2023-02-12T15:57:19.300Z,23.80
2023-02-12T15:59:51.381Z,23.03
2023-02-12T16:02:21.531Z,22.43
2023-02-12T16:04:48.600Z,22.07
2023-02-12T16:07:15.795Z,24.43
2023-02-12T16:09:43.251Z,23.93
2023-02-12T16:12:14.338Z,23.83
2023-02-12T16:14:47.832Z,23.67
2023-02-12T16:17:19.980Z,23.00
2023-02-12T16:19:57.200Z,24.13
2023-02-12T16:22:38.004Z,22.93
2023-02-12T16:25:15.379Z,23.57
2023-02-12T16:27:52.992Z,22.10
2023-02-12T16:30:42.687Z,21.67
2023-02-12T16:33:40.222Z,22.33
2023-02-12T16:36:13.861Z,25.07
2023-02-12T16:38:48.483Z,22.93
2023-02-12T16:41:17.818Z,24.50
2023-02-12T16:43:50.757Z,22.53
2023-02-12T16:46:19.782Z,21.57
2023-02-12T16:48:49.421Z,22.63
2023-02-12T16:51:32.120Z,22.37
2023-02-12T16:54:01.097Z,21.73
2023-02-12T16:56:30.656Z,21.70
2023-02-12T16:58:58.810Z,22.37
2023-02-12T17:01:31.339Z,21.47
2023-02-12T17:04:00.120Z,23.23
2023-02-12T17:06:30.979Z,20.23
2023-02-12T17:08:58.193Z,22.97
2023-02-12T17:11:26.080Z,21.33
2023-02-12T17:13:54.446Z,21.57
2023-02-12T17:16:30.340Z,20.97
2023-02-12T17:18:57.606Z,20.70
2023-02-12T17:21:27.307Z,20.37
2023-02-12T17:23:56.337Z,21.30
2023-02-12T17:26:24.124Z,21.33
2023-02-12T17:28:50.885Z,21.70
2023-02-12T17:31:17.565Z,20.97
2023-02-12T17:33:44.377Z,21.17
2023-02-12T17:36:12.091Z,19.70
2023-02-12T17:38:38.433Z,20.97
2023-02-12T17:41:11.496Z,21.07
2023-02-12T17:43:38.051Z,21.40
2023-02-12T17:46:18.436Z,20.83
2023-02-12T17:48:44.834Z,21.30
2023-02-12T17:51:11.615Z,20.30
2023-02-12T17:53:39.212Z,21.10
2023-02-12T17:56:09.594Z,20.83
2023-02-12T17:58:36.014Z,20.53
2023-02-12T18:01:11.494Z,21.20
2023-02-12T18:03:38.320Z,23.10
2023-02-12T18:06:05.212Z,22.33
2023-02-12T18:08:31.751Z,21.37
2023-02-12T18:10:58.706Z,21.47
2023-02-12T18:13:26.917Z,22.80
2023-02-12T18:15:56.193Z,24.80
2023-02-12T18:18:22.682Z,24.57
2023-02-12T18:20:49.166Z,26.23
2023-02-12T18:23:15.559Z,27.00
2023-02-12T18:25:43.305Z,25.43
2023-02-12T18:28:10.882Z,25.83
2023-02-12T18:30:38.882Z,25.70
2023-02-12T18:33:05.803Z,25.60
2023-02-12T18:35:32.749Z,26.13
2023-02-12T18:37:59.267Z,26.07
2023-02-12T18:40:25.745Z,26.13
2023-02-12T18:42:52.398Z,26.77
2023-02-12T18:45:19.358Z,25.77
2023-02-12T18:47:45.805Z,29.03
2023-02-12T18:50:12.170Z,27.67
2023-02-12T18:52:38.541Z,27.93
2023-02-12T18:55:06.986Z,28.10
2023-02-12T18:57:33.549Z,28.30
2023-02-12T18:59:59.957Z,28.13
2023-02-12T19:02:26.414Z,28.53
2023-02-12T19:04:52.837Z,28.07
2023-02-12T19:07:19.242Z,28.33
2023-02-12T19:09:45.766Z,27.67
2023-02-12T19:12:12.183Z,26.47
2023-02-12T19:14:38.586Z,27.93
2023-02-12T19:17:04.979Z,26.40
2023-02-12T19:19:31.337Z,26.43
2023-02-12T19:21:57.788Z,26.37
2023-02-12T19:24:24.373Z,25.80
2023-02-12T19:26:53.421Z,29.03
2023-02-12T19:29:20.314Z,26.83
2023-02-12T19:31:46.898Z,28.87
2023-02-12T19:34:19.313Z,28.77
2023-02-12T19:36:46.868Z,26.23
2023-02-12T19:39:15.863Z,27.77
2023-02-12T19:41:42.567Z,28.27
2023-02-12T19:44:18.859Z,28.27
2023-02-12T19:46:47.092Z,27.43
2023-02-12T19:49:16.656Z,30.00
2023-02-12T19:51:44.229Z,28.37
2023-02-12T19:54:12.897Z,28.93
2023-02-12T19:56:39.944Z,27.53
2023-02-12T19:59:07.200Z,26.67
2023-02-12T20:01:34.446Z,28.30
2023-02-12T20:04:01.839Z,28.17
2023-02-12T20:06:31.697Z,28.80
2023-02-12T20:08:58.361Z,28.87
2023-02-12T20:11:28.647Z,26.77
2023-02-12T20:13:55.907Z,27.70
2023-02-12T20:16:25.581Z,27.93
2023-02-12T20:18:53.762Z,27.00
2023-02-12T20:21:28.178Z,27.13
2023-02-12T20:23:55.190Z,28.37
2023-02-12T20:26:22.133Z,27.73
2023-02-12T20:28:49.748Z,27.63
2023-02-12T20:31:19.083Z,26.10
2023-02-12T20:33:46.289Z,27.83
2023-02-12T20:36:13.701Z,27.03
2023-02-12T20:38:42.210Z,26.57
2023-02-12T20:41:10.102Z,27.63
2023-02-12T20:43:37.453Z,25.50
2023-02-12T20:46:14.632Z,26.70
2023-02-12T20:48:42.019Z,28.10
2023-02-12T20:51:11.369Z,27.07
2023-02-12T20:53:38.377Z,26.93
2023-02-12T20:56:07.488Z,25.83
2023-02-12T20:58:34.518Z,26.40
2023-02-12T21:01:12.838Z,26.20
2023-02-12T21:03:40.182Z,24.00
2023-02-12T21:06:07.295Z,24.43
2023-02-12T21:08:36.531Z,25.13
2023-02-12T21:11:05.988Z,25.10
2023-02-12T21:13:33.510Z,25.03
2023-02-12T21:16:05.254Z,23.73
2023-02-12T21:18:31.843Z,24.13
2023-02-12T21:21:06.754Z,25.20
2023-02-12T21:23:34.821Z,26.03
2023-02-12T21:26:10.182Z,25.67
2023-02-12T21:28:36.985Z,24.53
2023-02-12T21:31:07.910Z,26.03
2023-02-12T21:33:37.764Z,25.80
2023-02-12T21:36:09.300Z,25.97
2023-02-12T21:38:39.758Z,24.77
2023-02-12T21:41:22.870Z,25.43
2023-02-12T21:43:51.720Z,24.20
2023-02-12T21:46:20.938Z,24.70
2023-02-12T21:48:47.417Z,22.80
2023-02-12T21:51:24.221Z,24.30
2023-02-12T21:53:52.702Z,22.70
2023-02-12T21:56:20.450Z,21.97
2023-02-12T21:58:47.655Z,21.90
2023-02-12T22:01:16.812Z,25.17
2023-02-12T22:03:46.746Z,24.20
2023-02-12T22:06:15.008Z,25.43
2023-02-12T22:08:41.403Z,23.77
2023-02-12T22:11:10.155Z,23.37
2023-02-12T22:13:37.532Z,22.30
2023-02-12T22:16:14.913Z,23.63
2023-02-12T22:18:42.301Z,23.43
2023-02-12T22:21:13.100Z,24.27
2023-02-12T22:23:40.566Z,23.07
2023-02-12T22:26:21.380Z,21.37
2023-02-12T22:28:50.360Z,22.43
2023-02-12T22:31:19.921Z,20.10
2023-02-12T22:33:46.853Z,21.13
2023-02-12T22:36:13.288Z,20.50
2023-02-12T22:38:40.752Z,19.97
2023-02-12T22:41:08.716Z,19.67
2023-02-12T22:43:37.121Z,19.70
2023-02-12T22:46:04.751Z,18.57
2023-02-12T22:48:31.302Z,19.70
2023-02-12T22:50:58.494Z,18.73
2023-02-12T22:53:26.219Z,18.60
2023-02-12T22:55:52.678Z,19.90
2023-02-12T22:58:19.235Z,17.50
2023-02-12T23:00:45.697Z,18.30
2023-02-12T23:03:12.124Z,17.87
2023-02-12T23:05:38.964Z,17.57
2023-02-12T23:08:06.328Z,19.10
2023-02-12T23:10:33.176Z,20.30
2023-02-12T23:13:01.388Z,19.53
2023-02-12T23:15:27.738Z,18.43
2023-02-12T23:17:54.138Z,20.10
2023-02-12T23:20:20.669Z,19.23
2023-02-12T23:22:47.101Z,18.70
2023-02-12T23:25:13.503Z,19.53
2023-02-12T23:27:39.882Z,17.47
2023-02-12T23:30:06.956Z,19.17
2023-02-12T23:32:33.282Z,19.97
2023-02-12T23:34:59.636Z,19.87
2023-02-12T23:37:25.968Z,19.50
2023-02-12T23:39:52.373Z,18.90
2023-02-12T23:42:18.996Z,18.80
2023-02-12T23:44:45.358Z,20.00
2023-02-12T23:47:11.701Z,20.50
2023-02-12T23:49:38.723Z,21.17
2023-02-12T23:52:05.109Z,20.33
2023-02-12T23:54:31.729Z,20.13
2023-02-12T23:56:58.234Z,20.03
2023-02-12T23:59:25.568Z,20.30
